Flight Track Log - Related Links

Times and Time Zones

All times are in EDT time to prevent confusion due to time zone crossing. See the ASQ5740 flight status page for this flight to view local times or setup timezone preferences in your user account.

Time Position Orientation Groundspeed Altitude Reporting Facility
EDT Latitude Longitude Course Direction KTS MPH feet Rate Location/Type
Wed 02:15:28 PM 38.9333 -77.5333 226° Southwest 192 221 1,900  Level Potomac TRACON
Wed 02:16:29 PM 38.8667 -77.5833 210° Southwest 259 298 4,100 2,380 Climbing Potomac TRACON
Wed 02:17:29 PM 38.8000 -77.5833 180° South 277 319 6,700 2,600 Climbing Potomac TRACON
Wed 02:18:00 PM 38.6596 -77.8234 238° Southwest  Level Estimated
Wed 02:18:29 PM 38.7333 -77.6167 201° Southwest 279 321 9,300  Level Potomac TRACON
Wed 02:19:00 PM 38.5875 -77.9138 238° Southwest  Level Estimated
Wed 02:19:04 PM 38.6894 -77.6450 207° Southwest 287 330 10,100  Level Washington Center
Wed 02:20:00 PM 38.5153 -78.0040 226° Southwest  Level Estimated
Wed 02:20:04 PM 38.6219 -77.6961 211° Southwest 314 361 11,200  Level Washington Center
Wed 02:21:03 PM 38.5394 -77.7603 211° Southwest 333 383 12,700 1,513 Climbing Washington Center
Wed 02:22:03 PM 38.4569 -77.8214 210° Southwest 338 389 14,200 1,450 Climbing Washington Center
Wed 02:23:03 PM 38.3703 -77.8850 210° Southwest 349 402 15,600 1,388 Climbing Washington Center
Wed 02:24:04 PM 38.2856 -77.9514 212° Southwest 354 407 17,000 1,339 Climbing Washington Center
Wed 02:25:04 PM 38.2008 -78.0147 210° Southwest 364 419 18,300 1,017 Climbing Washington Center
Wed 02:26:02 PM 38.1119 -78.0806 210° Southwest 369 425 19,000 356 Climbing Washington Center
Wed 02:27:02 PM 38.0208 -78.1511 211° Southwest 374 430 19,000  Level Washington Center
Wed 02:28:03 PM 37.9369 -78.2694 228° Southwest 391 450 19,000  Level Washington Center
Wed 02:29:03 PM 37.8592 -78.3825 229° Southwest 412 474 19,000 443 Level Washington Center
Wed 02:30:05 PM 37.7817 -78.4925 228° Southwest 424 488 19,900 1,050 Climbing Washington Center
Wed 02:31:03 PM 37.7058 -78.6000 228° Southwest 424 488 21,100 1,160 Climbing Washington Center
Wed 02:32:04 PM 37.6408 -78.6944 229° Southwest 413 475 22,200 992 Climbing Washington Center
Wed 02:33:04 PM 37.5717 -78.7911 228° Southwest 398 458 23,100 814 Climbing Washington Center
Wed 02:34:02 PM 37.5000 -78.8903 228° Southwest 386 444 23,800 655 Climbing Washington Center
Wed 02:35:03 PM 37.4306 -78.9892 229° Southwest 386 444 24,400 738 Climbing Washington Center
Wed 02:36:04 PM 37.3525 -79.0981 228° Southwest 381 438 25,300 756 Climbing Washington Center
Wed 02:37:02 PM 37.2806 -79.1967 227° Southwest 387 445 25,900 356 Climbing Washington Center
Wed 02:38:02 PM 37.2128 -79.2978 230° Southwest 387 445 26,000 50 Climbing Washington Center
Wed 02:39:02 PM 37.1406 -79.4036 229° Southwest 392 451 26,000  Level Washington Center
Wed 02:40:03 PM 37.0639 -79.5169 230° Southwest 406 467 26,000  Level Washington Center
Wed 02:41:04 PM 37.0003 -79.6153 231° Southwest 417 480 26,000  Level Washington Center
Wed 02:42:05 PM 36.9233 -79.7256 229° Southwest 417 480 26,000  Level Washington Center
Wed 02:43:02 PM 36.8464 -79.8381 229° Southwest 417 480 26,000  Level Washington Center
Wed 02:45:31 PM 36.6567 -80.1133 229° Southwest 437 503 26,000  Level Atlanta Center
Wed 02:46:31 PM 36.5828 -80.2178 229° Southwest 425 489 26,000  Level Atlanta Center
Wed 02:47:31 PM 36.4872 -80.2997 215° Southwest 415 478 26,000 -100 Level Atlanta Center
Wed 02:48:31 PM 36.3717 -80.3361 194° South 409 471 25,800 -400 Descending Atlanta Center
Wed 02:49:31 PM 36.2436 -80.3806 196° South 430 495 25,200 -550 Descending Atlanta Center
Wed 02:50:31 PM 36.1219 -80.4247 196° South 435 501 24,700 -450 Descending Atlanta Center
Wed 02:51:31 PM 36.0061 -80.4631 195° South 440 506 24,300 -450 Descending Atlanta Center
Wed 02:52:31 PM 35.8864 -80.5042 196° South 445 512 23,800 -550 Descending Atlanta Center
Wed 02:53:31 PM 35.7667 -80.5506 197° South 451 519 23,200 -550 Descending Atlanta Center
Wed 02:54:31 PM 35.6928 -80.6686 232° Southwest 425 489 22,700 -1,345 Descending Atlanta Center
Wed 02:55:27 PM 35.6394 -80.7808 240° Southwest 425 489 20,600 -2,300 Descending Atlanta Center
Wed 02:55:31 PM 35.6314 -80.7886 218° Southwest 420 483 20,400 -2,344 Descending Atlanta Center
Wed 02:56:31 PM 35.5719 -80.9033 238° Southwest 420 483 18,100 -2,286 Descending Atlanta Center
Wed 02:56:34 PM 35.5700 -80.9136 257° West 396 456 18,000 -1,800 Descending Atlanta Center
Wed 02:57:31 PM 35.5200 -81.0022 235° Southwest 402 463 16,300 -2,032 Descending Atlanta Center
Wed 02:57:36 PM 35.5122 -81.0256 248° West 380 437 15,900 -1,424 Descending Atlanta Center
Wed 02:58:30 PM 35.4603 -81.1194 236° Southwest 365 420 14,900 -982 Descending Atlanta Center
Wed 02:58:31 PM 35.4622 -81.1092 77° East 389 448 15,000 -794 Climbing Atlanta Center
Wed 02:59:38 PM 35.3983 -81.2386 239° Southwest 362 417 14,000 -844 Descending Atlanta Center
Wed 03:00:39 PM 35.3444 -81.3450 238° Southwest 369 425 13,200 -956 Descending Atlanta Center
Wed 03:01:31 PM 35.2942 -81.4381 237° Southwest 379 436 12,200 -1,232 Descending Atlanta Center
Wed 03:02:31 PM 35.2400 -81.5389 237° Southwest 374 430 10,900 -1,100 Descending Atlanta Center
Wed 03:03:31 PM 35.1900 -81.6372 238° Southwest 364 419 10,000 -450 Descending Atlanta Center
Wed 03:04:31 PM 35.1456 -81.7197 237° Southwest 325 374 10,000 -450 Level Atlanta Center
Wed 03:05:31 PM 35.0969 -81.7947 232° Southwest 296 341 9,100 -1,050 Descending Atlanta Center
Wed 03:06:31 PM 35.0522 -81.8669 233° Southwest 274 315 7,900 -1,200 Descending Atlanta Center
Wed 03:07:31 PM 35.0094 -81.9314 231° Southwest 274 315 6,700 -1,100 Descending Atlanta Center
Wed 03:08:31 PM 34.9650 -82.0036 233° Southwest 274 315 5,700 -1,050 Descending Atlanta Center
Wed 03:09:31 PM 34.9119 -82.0808 230° Southwest 279 321 4,600 -850 Descending Atlanta Center
Wed 03:10:31 PM 34.8481 -82.1381 216° Southwest 279 321 4,000 -300 Descending Atlanta Center
Wed 03:11:31 PM 34.7861 -82.1875 213° Southwest 279 321 4,000  Level Atlanta Center
Wed 03:12:31 PM 34.7264 -82.2367 214° Southwest 273 314 4,000  Level Atlanta Center
Wed 03:13:31 PM 34.6747 -82.2758 212° Southwest 250 288 4,000  Level Atlanta Center
Wed 03:14:31 PM 34.6736 -82.3414 269° West 185 213 4,000  Level Atlanta Center
Wed 03:15:31 PM 34.7178 -82.3583 342° North 129 148 4,000 -50 Level Atlanta Center
Wed 03:16:31 PM 34.7589 -82.3222 36° Northeast 105 121 3,900 -600 Descending Atlanta Center
Wed 03:17:31 PM 34.8022 -82.2908 31° Northeast 138 159 2,800 -900 Descending Atlanta Center
Wed 03:18:31 PM 34.8333 -82.2650 34° Northeast 154 177 2,100 -700 Descending Atlanta Center

Login

Don't have an account? Register now (free) for customized features, flight alerts, and more!